sensor_id;sensor_type;location;lat;lon;timestamp;P1;durP1;ratioP1;P2;durP2;ratioP2
66669;SDS011;53568;52.164;4.472;2022-12-05T00:00:51;34.96;;;32.55;;
66669;SDS011;53568;52.164;4.472;2022-12-05T00:03:18;34.65;;;32.35;;
66669;SDS011;53568;52.164;4.472;2022-12-05T00:05:44;34.32;;;32.14;;
66669;SDS011;53568;52.164;4.472;2022-12-05T00:08:09;35.37;;;32.49;;
66669;SDS011;53568;52.164;4.472;2022-12-05T00:10:35;33.86;;;31.33;;
66669;SDS011;53568;52.164;4.472;2022-12-05T00:13:01;34.29;;;31.86;;
66669;SDS011;53568;52.164;4.472;2022-12-05T00:15:27;33.90;;;31.83;;
66669;SDS011;53568;52.164;4.472;2022-12-05T00:17:52;33.41;;;31.19;;
66669;SDS011;53568;52.164;4.472;2022-12-05T00:20:18;33.85;;;31.50;;
66669;SDS011;53568;52.164;4.472;2022-12-05T00:22:45;34.67;;;31.63;;
66669;SDS011;53568;52.164;4.472;2022-12-05T00:25:10;34.79;;;32.19;;
66669;SDS011;53568;52.164;4.472;2022-12-05T00:27:36;34.25;;;32.01;;
66669;SDS011;53568;52.164;4.472;2022-12-05T00:30:02;34.24;;;31.55;;
66669;SDS011;53568;52.164;4.472;2022-12-05T00:32:28;34.33;;;31.63;;
66669;SDS011;53568;52.164;4.472;2022-12-05T00:34:54;32.50;;;30.38;;
66669;SDS011;53568;52.164;4.472;2022-12-05T00:37:20;33.50;;;30.94;;
66669;SDS011;53568;52.164;4.472;2022-12-05T00:39:45;34.86;;;31.99;;
66669;SDS011;53568;52.164;4.472;2022-12-05T00:42:11;32.93;;;30.81;;
66669;SDS011;53568;52.164;4.472;2022-12-05T00:44:36;34.12;;;31.40;;
66669;SDS011;53568;52.164;4.472;2022-12-05T00:47:02;34.14;;;31.88;;
66669;SDS011;53568;52.164;4.472;2022-12-05T00:49:27;33.23;;;30.75;;
66669;SDS011;53568;52.164;4.472;2022-12-05T00:51:53;34.71;;;32.00;;
66669;SDS011;53568;52.164;4.472;2022-12-05T00:54:18;34.43;;;31.85;;
66669;SDS011;53568;52.164;4.472;2022-12-05T00:56:44;34.09;;;31.49;;
66669;SDS011;53568;52.164;4.472;2022-12-05T00:59:15;34.97;;;32.36;;
66669;SDS011;53568;52.164;4.472;2022-12-05T01:01:43;36.46;;;33.74;;
66669;SDS011;53568;52.164;4.472;2022-12-05T01:04:13;34.59;;;32.04;;
66669;SDS011;53568;52.164;4.472;2022-12-05T01:06:44;35.59;;;32.53;;
66669;SDS011;53568;52.164;4.472;2022-12-05T01:09:11;35.15;;;32.55;;
66669;SDS011;53568;52.164;4.472;2022-12-05T01:11:39;35.76;;;32.78;;
66669;SDS011;53568;52.164;4.472;2022-12-05T01:14:05;36.18;;;32.72;;
66669;SDS011;53568;52.164;4.472;2022-12-05T01:16:32;36.28;;;33.23;;
66669;SDS011;53568;52.164;4.472;2022-12-05T01:19:01;36.03;;;33.15;;
66669;SDS011;53568;52.164;4.472;2022-12-05T01:21:30;35.12;;;32.60;;
66669;SDS011;53568;52.164;4.472;2022-12-05T01:23:55;36.14;;;33.20;;
66669;SDS011;53568;52.164;4.472;2022-12-05T01:26:22;36.05;;;33.13;;
66669;SDS011;53568;52.164;4.472;2022-12-05T01:28:48;35.91;;;33.41;;
66669;SDS011;53568;52.164;4.472;2022-12-05T01:33:48;34.74;;;32.09;;
66669;SDS011;53568;52.164;4.472;2022-12-05T01:36:15;35.80;;;33.01;;
66669;SDS011;53568;52.164;4.472;2022-12-05T01:38:42;36.20;;;33.33;;
66669;SDS011;53568;52.164;4.472;2022-12-05T01:41:10;35.49;;;33.02;;
66669;SDS011;53568;52.164;4.472;2022-12-05T01:46:22;37.18;;;34.36;;
66669;SDS011;53568;52.164;4.472;2022-12-05T01:48:49;36.51;;;33.55;;
66669;SDS011;53568;52.164;4.472;2022-12-05T01:51:17;37.13;;;34.09;;
66669;SDS011;53568;52.164;4.472;2022-12-05T01:53:43;36.10;;;33.53;;
66669;SDS011;53568;52.164;4.472;2022-12-05T01:56:10;36.20;;;33.56;;
66669;SDS011;53568;52.164;4.472;2022-12-05T01:58:37;36.61;;;33.68;;
66669;SDS011;53568;52.164;4.472;2022-12-05T02:01:07;36.56;;;33.46;;
66669;SDS011;53568;52.164;4.472;2022-12-05T02:03:32;37.14;;;34.14;;
66669;SDS011;53568;52.164;4.472;2022-12-05T02:06:01;36.81;;;33.84;;
66669;SDS011;53568;52.164;4.472;2022-12-05T02:08:28;36.22;;;33.52;;
66669;SDS011;53568;52.164;4.472;2022-12-05T02:10:54;35.68;;;33.24;;
66669;SDS011;53568;52.164;4.472;2022-12-05T02:13:27;37.40;;;34.59;;
66669;SDS011;53568;52.164;4.472;2022-12-05T02:16:05;36.63;;;33.80;;
66669;SDS011;53568;52.164;4.472;2022-12-05T02:29:45;34.28;;;31.84;;
66669;SDS011;53568;52.164;4.472;2022-12-05T02:32:21;34.06;;;32.01;;
66669;SDS011;53568;52.164;4.472;2022-12-05T02:37:54;34.27;;;31.83;;
66669;SDS011;53568;52.164;4.472;2022-12-05T02:40:38;33.78;;;31.45;;
66669;SDS011;53568;52.164;4.472;2022-12-05T02:43:25;33.76;;;31.67;;
66669;SDS011;53568;52.164;4.472;2022-12-05T02:46:03;33.76;;;31.38;;
66669;SDS011;53568;52.164;4.472;2022-12-05T02:48:35;34.99;;;32.42;;
66669;SDS011;53568;52.164;4.472;2022-12-05T02:51:02;34.45;;;31.97;;
66669;SDS011;53568;52.164;4.472;2022-12-05T02:53:31;34.19;;;31.76;;
66669;SDS011;53568;52.164;4.472;2022-12-05T02:56:01;34.77;;;32.11;;
66669;SDS011;53568;52.164;4.472;2022-12-05T02:58:38;34.87;;;32.25;;
66669;SDS011;53568;52.164;4.472;2022-12-05T03:01:27;34.06;;;31.63;;
66669;SDS011;53568;52.164;4.472;2022-12-05T03:03:55;34.52;;;32.13;;
66669;SDS011;53568;52.164;4.472;2022-12-05T03:08:58;33.20;;;30.91;;
66669;SDS011;53568;52.164;4.472;2022-12-05T03:11:29;34.05;;;31.23;;
66669;SDS011;53568;52.164;4.472;2022-12-05T03:14:02;34.08;;;31.15;;
66669;SDS011;53568;52.164;4.472;2022-12-05T03:16:46;32.59;;;30.14;;
66669;SDS011;53568;52.164;4.472;2022-12-05T03:19:25;32.90;;;30.21;;
66669;SDS011;53568;52.164;4.472;2022-12-05T03:24:36;32.53;;;29.93;;
66669;SDS011;53568;52.164;4.472;2022-12-05T03:30:32;34.71;;;31.27;;
66669;SDS011;53568;52.164;4.472;2022-12-05T03:33:13;32.66;;;30.06;;
66669;SDS011;53568;52.164;4.472;2022-12-05T03:38:43;32.76;;;30.14;;
66669;SDS011;53568;52.164;4.472;2022-12-05T03:41:18;32.39;;;29.69;;
66669;SDS011;53568;52.164;4.472;2022-12-05T03:46:36;30.92;;;29.00;;
66669;SDS011;53568;52.164;4.472;2022-12-05T03:49:23;30.82;;;28.80;;
66669;SDS011;53568;52.164;4.472;2022-12-05T03:54:51;30.88;;;28.49;;
66669;SDS011;53568;52.164;4.472;2022-12-05T03:57:23;31.00;;;28.94;;
66669;SDS011;53568;52.164;4.472;2022-12-05T03:59:58;29.62;;;27.87;;
66669;SDS011;53568;52.164;4.472;2022-12-05T04:02:36;30.31;;;28.38;;
66669;SDS011;53568;52.164;4.472;2022-12-05T04:07:45;30.80;;;28.62;;
66669;SDS011;53568;52.164;4.472;2022-12-05T04:10:19;30.10;;;28.04;;
66669;SDS011;53568;52.164;4.472;2022-12-05T04:12:55;29.43;;;27.57;;
66669;SDS011;53568;52.164;4.472;2022-12-05T04:15:41;29.08;;;27.45;;
66669;SDS011;53568;52.164;4.472;2022-12-05T04:18:33;29.74;;;27.80;;
66669;SDS011;53568;52.164;4.472;2022-12-05T04:21:05;29.27;;;27.54;;
66669;SDS011;53568;52.164;4.472;2022-12-05T04:23:49;30.52;;;28.72;;
66669;SDS011;53568;52.164;4.472;2022-12-05T04:26:35;30.07;;;27.90;;
66669;SDS011;53568;52.164;4.472;2022-12-05T04:29:11;29.95;;;27.94;;
66669;SDS011;53568;52.164;4.472;2022-12-05T04:31:49;29.43;;;27.59;;
66669;SDS011;53568;52.164;4.472;2022-12-05T04:34:21;29.08;;;27.50;;
66669;SDS011;53568;52.164;4.472;2022-12-05T04:36:57;30.59;;;28.69;;
66669;SDS011;53568;52.164;4.472;2022-12-05T04:39:41;28.66;;;27.26;;
66669;SDS011;53568;52.164;4.472;2022-12-05T04:42:20;29.06;;;27.47;;
66669;SDS011;53568;52.164;4.472;2022-12-05T04:44:55;29.12;;;27.42;;
66669;SDS011;53568;52.164;4.472;2022-12-05T04:47:32;29.52;;;27.60;;
66669;SDS011;53568;52.164;4.472;2022-12-05T04:50:07;30.04;;;27.99;;
66669;SDS011;53568;52.164;4.472;2022-12-05T04:52:35;29.91;;;28.06;;
66669;SDS011;53568;52.164;4.472;2022-12-05T04:55:14;28.94;;;27.38;;
66669;SDS011;53568;52.164;4.472;2022-12-05T04:57:58;29.36;;;27.64;;
66669;SDS011;53568;52.164;4.472;2022-12-05T05:00:33;29.17;;;27.54;;
66669;SDS011;53568;52.164;4.472;2022-12-05T05:03:19;28.86;;;27.33;;
66669;SDS011;53568;52.164;4.472;2022-12-05T05:06:06;29.24;;;27.29;;
66669;SDS011;53568;52.164;4.472;2022-12-05T05:08:32;28.86;;;26.98;;
66669;SDS011;53568;52.164;4.472;2022-12-05T05:11:13;28.12;;;26.54;;
66669;SDS011;53568;52.164;4.472;2022-12-05T05:13:42;27.52;;;26.25;;
66669;SDS011;53568;52.164;4.472;2022-12-05T05:16:11;28.51;;;27.17;;
66669;SDS011;53568;52.164;4.472;2022-12-05T05:18:38;29.16;;;27.17;;
66669;SDS011;53568;52.164;4.472;2022-12-05T05:21:03;29.16;;;27.49;;
66669;SDS011;53568;52.164;4.472;2022-12-05T05:23:29;28.47;;;27.09;;
66669;SDS011;53568;52.164;4.472;2022-12-05T05:25:55;27.46;;;26.19;;
66669;SDS011;53568;52.164;4.472;2022-12-05T05:28:21;30.19;;;28.23;;
66669;SDS011;53568;52.164;4.472;2022-12-05T05:30:47;29.74;;;28.09;;
66669;SDS011;53568;52.164;4.472;2022-12-05T05:33:13;29.04;;;27.47;;
66669;SDS011;53568;52.164;4.472;2022-12-05T05:35:39;29.46;;;28.06;;
66669;SDS011;53568;52.164;4.472;2022-12-05T05:38:04;29.67;;;28.03;;
66669;SDS011;53568;52.164;4.472;2022-12-05T05:40:30;28.83;;;27.51;;
66669;SDS011;53568;52.164;4.472;2022-12-05T05:42:55;29.83;;;28.48;;
66669;SDS011;53568;52.164;4.472;2022-12-05T05:45:21;29.12;;;27.88;;
66669;SDS011;53568;52.164;4.472;2022-12-05T05:47:47;29.33;;;28.01;;
66669;SDS011;53568;52.164;4.472;2022-12-05T05:50:14;30.22;;;28.88;;
66669;SDS011;53568;52.164;4.472;2022-12-05T05:52:40;31.08;;;29.41;;
66669;SDS011;53568;52.164;4.472;2022-12-05T05:55:06;30.32;;;28.57;;
66669;SDS011;53568;52.164;4.472;2022-12-05T05:57:33;29.85;;;28.44;;
66669;SDS011;53568;52.164;4.472;2022-12-05T06:00:00;30.13;;;28.45;;
66669;SDS011;53568;52.164;4.472;2022-12-05T06:02:31;29.11;;;28.04;;
66669;SDS011;53568;52.164;4.472;2022-12-05T06:04:58;29.58;;;28.45;;
66669;SDS011;53568;52.164;4.472;2022-12-05T06:07:24;30.96;;;29.16;;
66669;SDS011;53568;52.164;4.472;2022-12-05T06:09:49;30.46;;;29.09;;
66669;SDS011;53568;52.164;4.472;2022-12-05T06:12:15;29.88;;;28.49;;
66669;SDS011;53568;52.164;4.472;2022-12-05T06:14:41;31.13;;;29.25;;
66669;SDS011;53568;52.164;4.472;2022-12-05T06:17:06;30.52;;;28.77;;
66669;SDS011;53568;52.164;4.472;2022-12-05T06:19:32;30.91;;;29.25;;
66669;SDS011;53568;52.164;4.472;2022-12-05T06:21:57;29.72;;;28.45;;
66669;SDS011;53568;52.164;4.472;2022-12-05T06:24:23;29.18;;;28.21;;
66669;SDS011;53568;52.164;4.472;2022-12-05T06:26:48;30.03;;;28.68;;
66669;SDS011;53568;52.164;4.472;2022-12-05T06:29:14;28.01;;;27.06;;
66669;SDS011;53568;52.164;4.472;2022-12-05T06:31:40;27.66;;;26.70;;
66669;SDS011;53568;52.164;4.472;2022-12-05T06:34:06;29.59;;;28.06;;
66669;SDS011;53568;52.164;4.472;2022-12-05T06:36:31;28.59;;;27.16;;
66669;SDS011;53568;52.164;4.472;2022-12-05T06:38:57;29.09;;;27.92;;
66669;SDS011;53568;52.164;4.472;2022-12-05T06:41:24;27.33;;;26.36;;
66669;SDS011;53568;52.164;4.472;2022-12-05T06:43:54;27.14;;;26.12;;
66669;SDS011;53568;52.164;4.472;2022-12-05T06:46:21;26.74;;;25.94;;
66669;SDS011;53568;52.164;4.472;2022-12-05T06:48:47;26.47;;;25.63;;
66669;SDS011;53568;52.164;4.472;2022-12-05T06:51:14;27.00;;;25.90;;
66669;SDS011;53568;52.164;4.472;2022-12-05T06:53:41;26.30;;;25.48;;
66669;SDS011;53568;52.164;4.472;2022-12-05T06:56:09;25.82;;;25.18;;
66669;SDS011;53568;52.164;4.472;2022-12-05T06:58:41;24.87;;;24.13;;
66669;SDS011;53568;52.164;4.472;2022-12-05T07:01:10;25.59;;;24.56;;
66669;SDS011;53568;52.164;4.472;2022-12-05T07:03:55;24.38;;;23.57;;
66669;SDS011;53568;52.164;4.472;2022-12-05T07:06:21;24.53;;;23.86;;
66669;SDS011;53568;52.164;4.472;2022-12-05T07:08:47;23.60;;;22.92;;
66669;SDS011;53568;52.164;4.472;2022-12-05T07:11:12;23.39;;;22.75;;
66669;SDS011;53568;52.164;4.472;2022-12-05T07:13:38;23.85;;;23.36;;
66669;SDS011;53568;52.164;4.472;2022-12-05T07:16:04;22.96;;;22.23;;
66669;SDS011;53568;52.164;4.472;2022-12-05T07:18:31;22.38;;;21.94;;
66669;SDS011;53568;52.164;4.472;2022-12-05T07:20:58;22.12;;;21.56;;
66669;SDS011;53568;52.164;4.472;2022-12-05T07:23:26;22.12;;;21.34;;
66669;SDS011;53568;52.164;4.472;2022-12-05T07:25:52;21.35;;;20.85;;
66669;SDS011;53568;52.164;4.472;2022-12-05T07:28:18;20.84;;;20.18;;
66669;SDS011;53568;52.164;4.472;2022-12-05T07:30:44;20.56;;;19.87;;
66669;SDS011;53568;52.164;4.472;2022-12-05T07:33:09;20.17;;;19.70;;
66669;SDS011;53568;52.164;4.472;2022-12-05T07:35:35;18.88;;;18.71;;
66669;SDS011;53568;52.164;4.472;2022-12-05T07:38:00;19.01;;;18.51;;
66669;SDS011;53568;52.164;4.472;2022-12-05T07:40:26;18.83;;;18.49;;
66669;SDS011;53568;52.164;4.472;2022-12-05T07:42:52;19.25;;;18.90;;
66669;SDS011;53568;52.164;4.472;2022-12-05T07:45:18;18.72;;;18.09;;
66669;SDS011;53568;52.164;4.472;2022-12-05T07:47:46;19.07;;;18.53;;
66669;SDS011;53568;52.164;4.472;2022-12-05T07:50:12;18.69;;;18.03;;
66669;SDS011;53568;52.164;4.472;2022-12-05T07:52:39;17.76;;;17.24;;
66669;SDS011;53568;52.164;4.472;2022-12-05T07:55:05;17.63;;;17.20;;
66669;SDS011;53568;52.164;4.472;2022-12-05T07:57:31;17.41;;;17.06;;
66669;SDS011;53568;52.164;4.472;2022-12-05T07:59:57;17.26;;;17.04;;
66669;SDS011;53568;52.164;4.472;2022-12-05T08:02:22;16.92;;;16.43;;
66669;SDS011;53568;52.164;4.472;2022-12-05T08:04:48;17.80;;;17.15;;
66669;SDS011;53568;52.164;4.472;2022-12-05T08:07:13;16.98;;;16.44;;
66669;SDS011;53568;52.164;4.472;2022-12-05T08:09:39;16.55;;;16.10;;
66669;SDS011;53568;52.164;4.472;2022-12-05T08:12:04;16.48;;;16.09;;
66669;SDS011;53568;52.164;4.472;2022-12-05T08:14:30;15.94;;;15.45;;
66669;SDS011;53568;52.164;4.472;2022-12-05T08:16:56;16.58;;;16.07;;
66669;SDS011;53568;52.164;4.472;2022-12-05T08:19:21;15.51;;;15.17;;
66669;SDS011;53568;52.164;4.472;2022-12-05T08:21:47;14.81;;;14.45;;
66669;SDS011;53568;52.164;4.472;2022-12-05T08:24:13;14.27;;;13.95;;
66669;SDS011;53568;52.164;4.472;2022-12-05T08:26:39;14.78;;;14.40;;
66669;SDS011;53568;52.164;4.472;2022-12-05T08:29:09;14.24;;;13.93;;
66669;SDS011;53568;52.164;4.472;2022-12-05T08:31:44;13.10;;;12.99;;
66669;SDS011;53568;52.164;4.472;2022-12-05T08:34:12;13.40;;;13.20;;
66669;SDS011;53568;52.164;4.472;2022-12-05T08:36:38;13.29;;;13.08;;
66669;SDS011;53568;52.164;4.472;2022-12-05T08:39:05;13.03;;;12.81;;
66669;SDS011;53568;52.164;4.472;2022-12-05T08:41:33;12.51;;;12.43;;
66669;SDS011;53568;52.164;4.472;2022-12-05T08:44:00;12.69;;;12.56;;
66669;SDS011;53568;52.164;4.472;2022-12-05T08:46:27;11.97;;;11.87;;
66669;SDS011;53568;52.164;4.472;2022-12-05T08:48:53;11.75;;;11.69;;
66669;SDS011;53568;52.164;4.472;2022-12-05T08:51:19;11.40;;;11.28;;
66669;SDS011;53568;52.164;4.472;2022-12-05T08:53:45;11.54;;;11.33;;
66669;SDS011;53568;52.164;4.472;2022-12-05T08:56:10;11.64;;;11.52;;
66669;SDS011;53568;52.164;4.472;2022-12-05T08:58:37;11.65;;;11.29;;
66669;SDS011;53568;52.164;4.472;2022-12-05T09:01:08;11.41;;;11.32;;
66669;SDS011;53568;52.164;4.472;2022-12-05T09:03:36;10.88;;;10.86;;
66669;SDS011;53568;52.164;4.472;2022-12-05T09:06:05;10.85;;;10.85;;
66669;SDS011;53568;52.164;4.472;2022-12-05T09:08:32;11.17;;;10.99;;
66669;SDS011;53568;52.164;4.472;2022-12-05T09:10:58;10.69;;;10.54;;
66669;SDS011;53568;52.164;4.472;2022-12-05T09:13:24;10.93;;;10.81;;
66669;SDS011;53568;52.164;4.472;2022-12-05T09:15:49;10.32;;;10.28;;
66669;SDS011;53568;52.164;4.472;2022-12-05T09:18:14;11.25;;;10.90;;
66669;SDS011;53568;52.164;4.472;2022-12-05T09:20:40;11.68;;;11.25;;
66669;SDS011;53568;52.164;4.472;2022-12-05T09:23:06;11.63;;;11.24;;
66669;SDS011;53568;52.164;4.472;2022-12-05T09:25:31;11.17;;;10.97;;
66669;SDS011;53568;52.164;4.472;2022-12-05T09:27:56;11.10;;;11.02;;
66669;SDS011;53568;52.164;4.472;2022-12-05T09:30:22;11.23;;;11.20;;
66669;SDS011;53568;52.164;4.472;2022-12-05T09:32:47;11.31;;;11.17;;
66669;SDS011;53568;52.164;4.472;2022-12-05T09:35:13;11.06;;;10.83;;
66669;SDS011;53568;52.164;4.472;2022-12-05T09:37:39;11.24;;;11.16;;
66669;SDS011;53568;52.164;4.472;2022-12-05T09:40:04;11.73;;;11.54;;
66669;SDS011;53568;52.164;4.472;2022-12-05T09:42:33;11.97;;;11.63;;
66669;SDS011;53568;52.164;4.472;2022-12-05T09:47:53;11.59;;;11.31;;
66669;SDS011;53568;52.164;4.472;2022-12-05T09:50:28;12.00;;;11.67;;
66669;SDS011;53568;52.164;4.472;2022-12-05T09:55:28;12.13;;;11.75;;
66669;SDS011;53568;52.164;4.472;2022-12-05T10:06:47;11.74;;;11.67;;
66669;SDS011;53568;52.164;4.472;2022-12-05T10:09:34;12.15;;;11.82;;
66669;SDS011;53568;52.164;4.472;2022-12-05T10:15:19;12.28;;;12.02;;
66669;SDS011;53568;52.164;4.472;2022-12-05T10:18:38;12.45;;;12.34;;
66669;SDS011;53568;52.164;4.472;2022-12-05T10:21:22;12.52;;;12.33;;
66669;SDS011;53568;52.164;4.472;2022-12-05T10:24:14;12.76;;;12.50;;
66669;SDS011;53568;52.164;4.472;2022-12-05T10:26:50;12.77;;;12.62;;
66669;SDS011;53568;52.164;4.472;2022-12-05T10:29:28;12.35;;;12.31;;
66669;SDS011;53568;52.164;4.472;2022-12-05T10:34:39;12.64;;;12.42;;
66669;SDS011;53568;52.164;4.472;2022-12-05T10:37:20;13.21;;;12.89;;
66669;SDS011;53568;52.164;4.472;2022-12-05T10:39:47;12.61;;;12.26;;
66669;SDS011;53568;52.164;4.472;2022-12-05T10:42:25;12.47;;;12.40;;
66669;SDS011;53568;52.164;4.472;2022-12-05T10:44:58;11.97;;;11.88;;
66669;SDS011;53568;52.164;4.472;2022-12-05T10:47:29;12.41;;;12.33;;
66669;SDS011;53568;52.164;4.472;2022-12-05T10:49:57;12.44;;;12.24;;
66669;SDS011;53568;52.164;4.472;2022-12-05T10:52:29;11.89;;;11.72;;
66669;SDS011;53568;52.164;4.472;2022-12-05T10:55:02;11.96;;;11.81;;
66669;SDS011;53568;52.164;4.472;2022-12-05T10:57:30;11.75;;;11.73;;
66669;SDS011;53568;52.164;4.472;2022-12-05T10:59:56;12.77;;;12.46;;
66669;SDS011;53568;52.164;4.472;2022-12-05T11:02:26;12.44;;;12.24;;
66669;SDS011;53568;52.164;4.472;2022-12-05T11:04:55;12.71;;;12.32;;
66669;SDS011;53568;52.164;4.472;2022-12-05T11:07:27;12.35;;;12.11;;
66669;SDS011;53568;52.164;4.472;2022-12-05T11:09:56;11.40;;;11.35;;
66669;SDS011;53568;52.164;4.472;2022-12-05T11:12:42;12.14;;;12.00;;
66669;SDS011;53568;52.164;4.472;2022-12-05T11:17:41;10.82;;;10.74;;
66669;SDS011;53568;52.164;4.472;2022-12-05T11:22:48;11.04;;;10.94;;
66669;SDS011;53568;52.164;4.472;2022-12-05T11:27:54;10.87;;;10.83;;
66669;SDS011;53568;52.164;4.472;2022-12-05T11:30:22;10.59;;;10.58;;
66669;SDS011;53568;52.164;4.472;2022-12-05T11:33:37;10.54;;;10.52;;
66669;SDS011;53568;52.164;4.472;2022-12-05T11:35:46;10.53;;;10.46;;
66669;SDS011;53568;52.164;4.472;2022-12-05T11:38:14;10.38;;;10.32;;
66669;SDS011;53568;52.164;4.472;2022-12-05T11:51:40;10.47;;;10.33;;
66669;SDS011;53568;52.164;4.472;2022-12-05T11:54:20;10.30;;;10.28;;
66669;SDS011;53568;52.164;4.472;2022-12-05T11:57:06;10.23;;;10.22;;
66669;SDS011;53568;52.164;4.472;2022-12-05T12:15:15;13.02;;;12.89;;
66669;SDS011;53568;52.164;4.472;2022-12-05T12:18:22;12.00;;;11.95;;
66669;SDS011;53568;52.164;4.472;2022-12-05T12:21:18;11.92;;;11.90;;
66669;SDS011;53568;52.164;4.472;2022-12-05T12:37:46;11.78;;;11.72;;
66669;SDS011;53568;52.164;4.472;2022-12-05T12:49:08;10.47;;;10.29;;
66669;SDS011;53568;52.164;4.472;2022-12-05T12:51:53;10.77;;;10.63;;
66669;SDS011;53568;52.164;4.472;2022-12-05T12:57:11;11.04;;;10.85;;
66669;SDS011;53568;52.164;4.472;2022-12-05T13:03:02;10.64;;;10.56;;
66669;SDS011;53568;52.164;4.472;2022-12-05T13:05:43;10.84;;;10.72;;
66669;SDS011;53568;52.164;4.472;2022-12-05T13:08:15;11.40;;;11.25;;
66669;SDS011;53568;52.164;4.472;2022-12-05T13:10:57;10.71;;;10.62;;
66669;SDS011;53568;52.164;4.472;2022-12-05T13:13:33;10.91;;;10.78;;
66669;SDS011;53568;52.164;4.472;2022-12-05T13:16:03;11.80;;;11.62;;
66669;SDS011;53568;52.164;4.472;2022-12-05T13:18:32;11.13;;;11.00;;
66669;SDS011;53568;52.164;4.472;2022-12-05T13:20:59;11.45;;;11.28;;
66669;SDS011;53568;52.164;4.472;2022-12-05T13:23:35;11.32;;;11.18;;
66669;SDS011;53568;52.164;4.472;2022-12-05T13:26:09;11.48;;;11.30;;
66669;SDS011;53568;52.164;4.472;2022-12-05T13:28:38;11.53;;;11.37;;
66669;SDS011;53568;52.164;4.472;2022-12-05T13:31:12;11.65;;;11.49;;
66669;SDS011;53568;52.164;4.472;2022-12-05T13:33:44;11.20;;;11.10;;
66669;SDS011;53568;52.164;4.472;2022-12-05T13:36:12;10.96;;;10.85;;
66669;SDS011;53568;52.164;4.472;2022-12-05T13:39:04;11.01;;;10.93;;
66669;SDS011;53568;52.164;4.472;2022-12-05T13:41:59;11.00;;;10.93;;
66669;SDS011;53568;52.164;4.472;2022-12-05T13:44:54;10.92;;;10.82;;
66669;SDS011;53568;52.164;4.472;2022-12-05T13:47:24;10.58;;;10.43;;
66669;SDS011;53568;52.164;4.472;2022-12-05T13:50:18;10.28;;;10.12;;
66669;SDS011;53568;52.164;4.472;2022-12-05T13:53:04;11.02;;;10.89;;
66669;SDS011;53568;52.164;4.472;2022-12-05T13:55:54;10.59;;;10.50;;
66669;SDS011;53568;52.164;4.472;2022-12-05T14:00:48;10.61;;;10.56;;
66669;SDS011;53568;52.164;4.472;2022-12-05T14:05:59;10.71;;;10.65;;
66669;SDS011;53568;52.164;4.472;2022-12-05T14:21:52;10.78;;;10.75;;
66669;SDS011;53568;52.164;4.472;2022-12-05T14:24:31;10.52;;;10.45;;
66669;SDS011;53568;52.164;4.472;2022-12-05T14:27:22;11.08;;;10.97;;
66669;SDS011;53568;52.164;4.472;2022-12-05T14:32:46;10.31;;;10.26;;
66669;SDS011;53568;52.164;4.472;2022-12-05T14:35:16;10.44;;;10.41;;
66669;SDS011;53568;52.164;4.472;2022-12-05T14:37:55;10.70;;;10.67;;
66669;SDS011;53568;52.164;4.472;2022-12-05T14:40:32;10.71;;;10.70;;
66669;SDS011;53568;52.164;4.472;2022-12-05T14:43:02;10.91;;;10.82;;
66669;SDS011;53568;52.164;4.472;2022-12-05T14:45:36;11.06;;;11.01;;
66669;SDS011;53568;52.164;4.472;2022-12-05T14:56:12;10.52;;;10.48;;
66669;SDS011;53568;52.164;4.472;2022-12-05T14:58:44;10.33;;;10.29;;
66669;SDS011;53568;52.164;4.472;2022-12-05T15:01:44;10.71;;;10.63;;
66669;SDS011;53568;52.164;4.472;2022-12-05T15:07:13;10.22;;;10.08;;
66669;SDS011;53568;52.164;4.472;2022-12-05T15:12:24;9.71;;;9.63;;
66669;SDS011;53568;52.164;4.472;2022-12-05T15:14:56;10.14;;;10.07;;
66669;SDS011;53568;52.164;4.472;2022-12-05T15:17:29;9.69;;;9.64;;
66669;SDS011;53568;52.164;4.472;2022-12-05T15:20:16;9.52;;;9.44;;
66669;SDS011;53568;52.164;4.472;2022-12-05T15:22:49;9.43;;;9.33;;
66669;SDS011;53568;52.164;4.472;2022-12-05T15:27:52;9.55;;;9.45;;
66669;SDS011;53568;52.164;4.472;2022-12-05T15:30:19;9.91;;;9.82;;
66669;SDS011;53568;52.164;4.472;2022-12-05T15:32:45;9.52;;;9.51;;
66669;SDS011;53568;52.164;4.472;2022-12-05T15:35:10;9.56;;;9.51;;
66669;SDS011;53568;52.164;4.472;2022-12-05T15:37:43;8.86;;;8.82;;
66669;SDS011;53568;52.164;4.472;2022-12-05T15:40:13;9.51;;;9.47;;
66669;SDS011;53568;52.164;4.472;2022-12-05T15:42:45;9.53;;;9.41;;
66669;SDS011;53568;52.164;4.472;2022-12-05T15:48:09;9.28;;;9.21;;
66669;SDS011;53568;52.164;4.472;2022-12-05T15:50:40;8.69;;;8.65;;
66669;SDS011;53568;52.164;4.472;2022-12-05T15:53:51;9.15;;;9.14;;
66669;SDS011;53568;52.164;4.472;2022-12-05T15:56:43;8.39;;;8.36;;
66669;SDS011;53568;52.164;4.472;2022-12-05T15:59:06;8.58;;;8.58;;
66669;SDS011;53568;52.164;4.472;2022-12-05T16:01:43;8.34;;;8.32;;
66669;SDS011;53568;52.164;4.472;2022-12-05T16:04:17;8.66;;;8.58;;
66669;SDS011;53568;52.164;4.472;2022-12-05T16:07:00;8.77;;;8.74;;
66669;SDS011;53568;52.164;4.472;2022-12-05T16:09:32;8.85;;;8.79;;
66669;SDS011;53568;52.164;4.472;2022-12-05T16:12:06;8.92;;;8.88;;
66669;SDS011;53568;52.164;4.472;2022-12-05T16:14:50;9.04;;;9.00;;
66669;SDS011;53568;52.164;4.472;2022-12-05T16:17:21;9.07;;;9.02;;
66669;SDS011;53568;52.164;4.472;2022-12-05T16:19:47;9.47;;;9.37;;
66669;SDS011;53568;52.164;4.472;2022-12-05T16:24:42;9.32;;;9.31;;
66669;SDS011;53568;52.164;4.472;2022-12-05T16:27:22;8.95;;;8.92;;
66669;SDS011;53568;52.164;4.472;2022-12-05T16:30:07;9.08;;;9.04;;
66669;SDS011;53568;52.164;4.472;2022-12-05T16:32:41;8.95;;;8.95;;
66669;SDS011;53568;52.164;4.472;2022-12-05T16:45:47;7.82;;;7.82;;
66669;SDS011;53568;52.164;4.472;2022-12-05T16:48:24;7.54;;;7.53;;
66669;SDS011;53568;52.164;4.472;2022-12-05T16:53:38;8.56;;;8.55;;
66669;SDS011;53568;52.164;4.472;2022-12-05T16:56:05;8.55;;;8.55;;
66669;SDS011;53568;52.164;4.472;2022-12-05T16:58:38;8.91;;;8.88;;
66669;SDS011;53568;52.164;4.472;2022-12-05T17:01:04;9.73;;;9.66;;
66669;SDS011;53568;52.164;4.472;2022-12-05T17:03:31;10.16;;;10.07;;
66669;SDS011;53568;52.164;4.472;2022-12-05T17:06:00;10.13;;;10.11;;
66669;SDS011;53568;52.164;4.472;2022-12-05T17:08:25;10.62;;;10.55;;
66669;SDS011;53568;52.164;4.472;2022-12-05T17:10:51;10.88;;;10.82;;
66669;SDS011;53568;52.164;4.472;2022-12-05T17:13:17;10.67;;;10.63;;
66669;SDS011;53568;52.164;4.472;2022-12-05T17:15:44;11.40;;;11.31;;
66669;SDS011;53568;52.164;4.472;2022-12-05T17:18:14;11.05;;;11.01;;
66669;SDS011;53568;52.164;4.472;2022-12-05T17:20:42;10.79;;;10.76;;
66669;SDS011;53568;52.164;4.472;2022-12-05T17:23:13;10.72;;;10.71;;
66669;SDS011;53568;52.164;4.472;2022-12-05T17:25:49;11.83;;;11.74;;
66669;SDS011;53568;52.164;4.472;2022-12-05T17:28:16;12.21;;;12.06;;
66669;SDS011;53568;52.164;4.472;2022-12-05T17:30:42;11.98;;;11.96;;
66669;SDS011;53568;52.164;4.472;2022-12-05T17:33:12;11.52;;;11.50;;
66669;SDS011;53568;52.164;4.472;2022-12-05T17:35:40;11.17;;;11.15;;
66669;SDS011;53568;52.164;4.472;2022-12-05T17:38:06;10.28;;;10.26;;
66669;SDS011;53568;52.164;4.472;2022-12-05T17:40:33;9.54;;;9.49;;
66669;SDS011;53568;52.164;4.472;2022-12-05T17:42:59;9.80;;;9.73;;
66669;SDS011;53568;52.164;4.472;2022-12-05T17:45:24;9.39;;;9.35;;